Terminal Aerodrome Forecast
Issued by NWS Glasgow, MT

Home | Current Version | Previous Version | Text Only | Print | Product List | Glossary On
Versions: 1 2 3 4 5 6 7 8 9 10 11 12 13 14
490
FTUS45 KGGW 241136
TAFGGW
TAF
KGGW 241136Z 2412/2512 11005KT P6SM FEW230
     FM250300 13012KT P6SM BKN110
     FM250600 14013KT P6SM BKN100 WS020/18040KT
     FM250900 16009KT P6SM BKN090=

USA.gov is the U.S. government's official web portal to all federal, state and local government web resources and services.